METAR & TAF

RJTY 200656Z AUTO 13005KT 10SM CLR 09/00 A3002 RMK AO2 SLP175 T00881005 FZRANO $
RJTY 200556Z AUTO 15006KT 10SM BKN038 BKN065 10/M01 A3004 RMK AO2 SLP181 T00991006 10099 20045 56017 FZRANO $
RJTY 200456Z AUTO 16008KT 10SM CLR 09/M01 A3004 RMK AO2 SLP182 T00911011 FZRANO $
RJTY 200356Z AUTO 14005KT 10SM FEW160 08/M01 A3007 RMK AO2 SLP192 T00841009 FZRANO $
RJTY 200256Z AUTO 17003KT 10SM BKN100 07/M01 A3009 RMK AO2 SLP199 T00711011 58025 FZRANO $

TAF RJTY 200500Z 2005/2111 17009KT 9999 SCT050 SCT160 QNH3002INS
  BECMG 2018/2019 34015G25KT 9999 SKC QNH3005INS
  BECMG 2102/2103 03010G15KT 9999 FEW060 QNH3009INS TX12/2105Z TN01/2019Z